createdAt,value
2022-08-16T00:04:16.712Z,0.98
2022-08-16T00:09:18.956Z,0.95
2022-08-16T00:14:28.933Z,0.88
2022-08-16T00:19:40.978Z,0.80
2022-08-16T00:24:46.664Z,0.90
2022-08-16T00:30:00.885Z,0.70
2022-08-16T00:35:16.034Z,1.55
2022-08-16T00:40:33.583Z,0.82
2022-08-16T00:46:22.327Z,0.88
2022-08-16T00:51:29.936Z,0.63
2022-08-16T00:56:57.804Z,1.10
2022-08-16T01:01:57.870Z,1.13
2022-08-16T01:07:03.113Z,0.85
2022-08-16T01:12:10.705Z,1.27
2022-08-16T01:17:14.419Z,1.08
2022-08-16T01:23:11.596Z,0.98
2022-08-16T01:33:23.533Z,1.25
2022-08-16T01:38:28.166Z,1.00
2022-08-16T01:43:31.778Z,1.02
2022-08-16T01:48:33.916Z,1.25
2022-08-16T01:53:37.926Z,1.00
2022-08-16T01:58:48.121Z,1.00
2022-08-16T02:03:51.890Z,0.90
2022-08-16T02:08:57.910Z,1.10
2022-08-16T02:14:03.575Z,1.20
2022-08-16T02:19:16.227Z,1.30
2022-08-16T02:24:31.772Z,2.13
2022-08-16T02:29:34.522Z,1.00
2022-08-16T02:34:40.837Z,1.30
2022-08-16T02:39:42.893Z,1.00
2022-08-16T02:44:44.870Z,1.20
2022-08-16T02:50:34.337Z,1.40
2022-08-16T02:55:15.738Z,1.02
2022-08-16T03:00:34.061Z,1.20
2022-08-16T03:05:37.090Z,1.23
2022-08-16T03:10:40.615Z,1.75
2022-08-16T03:15:42.622Z,1.60
2022-08-16T03:20:44.781Z,2.10
2022-08-16T03:25:57.753Z,1.45
2022-08-16T03:30:59.700Z,1.60
2022-08-16T03:36:30.303Z,1.63
2022-08-16T03:41:29.480Z,2.10
2022-08-16T03:46:50.041Z,2.00
2022-08-16T03:51:52.393Z,1.90
2022-08-16T03:56:57.688Z,1.80
2022-08-16T04:02:01.966Z,2.10
2022-08-16T04:07:07.183Z,1.52
2022-08-16T04:12:53.742Z,1.65
2022-08-16T04:17:35.034Z,2.00
2022-08-16T04:22:41.218Z,2.17
2022-08-16T04:27:55.742Z,1.90
2022-08-16T04:38:22.291Z,2.63
2022-08-16T04:43:39.233Z,2.20
2022-08-16T04:48:59.753Z,1.75
2022-08-16T04:54:19.511Z,1.70
2022-08-16T04:59:22.115Z,2.25
2022-08-16T05:04:24.506Z,2.33
2022-08-16T05:09:32.001Z,2.05
2022-08-16T05:14:42.164Z,2.80
2022-08-16T05:19:57.275Z,2.60
2022-08-16T05:25:00.279Z,3.10
2022-08-16T05:30:34.106Z,3.08
2022-08-16T05:35:24.472Z,2.80
2022-08-16T05:40:26.451Z,3.15
2022-08-16T05:45:28.267Z,3.03
2022-08-16T05:50:34.749Z,2.53
2022-08-16T05:55:40.828Z,3.35
2022-08-16T06:00:42.721Z,3.53
2022-08-16T06:05:45.114Z,2.90
2022-08-16T06:11:03.054Z,3.33
2022-08-16T06:16:18.141Z,3.20
2022-08-16T06:21:22.835Z,4.55
2022-08-16T06:26:34.804Z,3.30
2022-08-16T06:31:48.791Z,3.03
2022-08-16T06:36:51.302Z,3.30
2022-08-16T06:42:01.798Z,3.13
2022-08-16T06:47:03.690Z,4.13
2022-08-16T06:52:05.505Z,3.40
2022-08-16T06:57:27.332Z,3.40
2022-08-16T07:02:32.961Z,3.60
2022-08-16T07:12:47.324Z,2.47
2022-08-16T07:17:49.741Z,2.45
2022-08-16T07:22:58.868Z,2.90
2022-08-16T07:28:01.540Z,2.60
2022-08-16T07:33:07.173Z,2.58
2022-08-16T07:38:09.131Z,2.77
2022-08-16T07:43:10.945Z,3.10
2022-08-16T07:48:12.982Z,2.92
2022-08-16T07:53:15.965Z,2.40
2022-08-16T07:58:34.487Z,2.97
2022-08-16T08:03:40.014Z,2.83
2022-08-16T08:08:51.017Z,2.40
2022-08-16T08:13:54.857Z,2.28
2022-08-16T08:19:01.205Z,2.28
2022-08-16T08:24:05.300Z,2.35
2022-08-16T08:29:14.002Z,1.40
2022-08-16T08:34:17.313Z,1.60
2022-08-16T08:39:22.562Z,1.75
2022-08-16T08:44:29.412Z,1.52
2022-08-16T08:49:46.756Z,2.15
2022-08-16T08:54:52.761Z,1.20
2022-08-16T08:59:55.333Z,1.05
2022-08-16T09:04:58.645Z,1.27
2022-08-16T09:10:06.813Z,1.20
2022-08-16T09:15:32.517Z,0.88
2022-08-16T09:20:35.403Z,1.40
2022-08-16T09:25:57.781Z,1.15
2022-08-16T09:31:00.361Z,1.02
2022-08-16T09:36:02.346Z,1.00
2022-08-16T09:41:14.751Z,0.98
2022-08-16T09:46:49.055Z,0.80
2022-08-16T09:51:40.930Z,0.60
2022-08-16T09:56:53.670Z,0.93
2022-08-16T10:01:56.357Z,0.80
2022-08-16T10:12:20.004Z,0.82
2022-08-16T10:17:22.002Z,1.05
2022-08-16T10:22:27.018Z,0.95
2022-08-16T10:27:47.099Z,1.13
2022-08-16T10:32:52.439Z,0.90
2022-08-16T10:37:54.588Z,0.85
2022-08-16T10:43:00.738Z,1.00
2022-08-16T10:48:04.004Z,1.05
2022-08-16T10:53:07.443Z,0.82
2022-08-16T10:58:17.017Z,0.70
2022-08-16T11:08:45.397Z,0.90
2022-08-16T11:14:05.935Z,1.00
2022-08-16T11:19:22.743Z,0.90
2022-08-16T11:24:41.192Z,0.80
2022-08-16T11:29:45.083Z,0.60
2022-08-16T11:35:10.322Z,1.00
2022-08-16T11:40:09.714Z,0.70
2022-08-16T11:45:18.480Z,0.70
2022-08-16T11:50:23.398Z,1.00
2022-08-16T11:55:25.316Z,0.90
2022-08-16T12:00:33.663Z,0.82
2022-08-16T12:05:51.798Z,0.77
2022-08-16T12:10:55.386Z,0.70
2022-08-16T12:16:07.365Z,0.60
2022-08-16T12:21:26.956Z,0.60
2022-08-16T12:46:22.506Z,0.60
2022-08-16T12:51:58.223Z,0.60
2022-08-16T12:57:36.151Z,0.80
2022-08-16T13:02:57.784Z,0.90
2022-08-16T13:08:03.890Z,0.60
2022-08-16T13:13:10.883Z,0.80
2022-08-16T13:18:26.903Z,0.70
2022-08-16T13:23:43.864Z,0.70
2022-08-16T13:40:38.579Z,0.57
2022-08-16T13:45:50.410Z,0.70
2022-08-16T13:51:16.891Z,0.60
2022-08-16T14:02:05.581Z,0.60
2022-08-16T14:07:19.767Z,0.60
2022-08-16T14:18:15.812Z,0.50
2022-08-16T14:23:41.348Z,0.50
2022-08-16T14:29:04.220Z,0.38
2022-08-16T14:34:12.343Z,0.65
2022-08-16T14:39:40.166Z,0.40
2022-08-16T14:44:49.820Z,0.43
2022-08-16T14:50:00.305Z,0.40
2022-08-16T14:55:14.094Z,0.40
2022-08-16T15:00:34.075Z,0.60
2022-08-16T15:05:40.381Z,0.40
2022-08-16T15:10:56.776Z,0.40
2022-08-16T15:16:06.738Z,0.47
2022-08-16T15:21:09.042Z,0.40
2022-08-16T15:26:18.804Z,0.43
2022-08-16T15:31:50.839Z,0.40
2022-08-16T15:37:03.417Z,0.30
2022-08-16T15:42:27.243Z,0.30
2022-08-16T15:47:33.560Z,0.40
2022-08-16T15:52:38.955Z,0.40
2022-08-16T16:03:13.953Z,0.40
2022-08-16T16:08:23.903Z,0.55
2022-08-16T16:13:28.252Z,0.35
2022-08-16T16:18:35.285Z,0.40
2022-08-16T16:24:03.127Z,0.50
2022-08-16T16:29:30.101Z,0.30
2022-08-16T16:40:53.930Z,0.60
2022-08-16T16:46:42.878Z,0.40
2022-08-16T16:51:54.228Z,0.40
2022-08-16T16:57:55.785Z,0.40
2022-08-16T17:03:38.444Z,0.30
2022-08-16T17:08:53.895Z,0.50
2022-08-16T17:14:13.899Z,0.60
2022-08-16T17:19:31.391Z,0.60
2022-08-16T17:24:39.820Z,0.45
2022-08-16T17:29:58.954Z,0.90
2022-08-16T17:35:18.956Z,0.50
2022-08-16T17:45:48.705Z,1.10
2022-08-16T17:51:43.181Z,0.40
2022-08-16T17:57:17.666Z,0.93
2022-08-16T18:02:44.989Z,0.47
2022-08-16T18:08:15.223Z,0.70
2022-08-16T18:13:22.019Z,0.70
2022-08-16T19:06:28.543Z,1.00
2022-08-16T19:56:07.061Z,1.05
2022-08-16T20:02:35.413Z,0.90
2022-08-16T20:07:46.532Z,0.90
2022-08-16T20:13:02.922Z,0.68
2022-08-16T20:18:04.918Z,0.73
2022-08-16T20:23:25.202Z,0.82
2022-08-16T20:28:40.663Z,0.70
2022-08-16T20:33:50.082Z,0.70
2022-08-16T20:38:52.645Z,0.70
2022-08-16T20:43:55.173Z,0.70
2022-08-16T20:48:56.948Z,0.60
2022-08-16T20:53:58.715Z,0.80
2022-08-16T20:59:00.496Z,0.98
2022-08-16T21:04:02.284Z,0.80
2022-08-16T21:09:04.692Z,0.80
2022-08-16T21:14:10.761Z,0.90
2022-08-16T21:19:12.935Z,1.17
2022-08-16T21:24:15.232Z,0.73
2022-08-16T21:29:17.134Z,0.70
2022-08-16T21:34:18.924Z,0.75
2022-08-16T21:39:20.573Z,0.90
2022-08-16T21:44:22.330Z,0.80
2022-08-16T21:49:34.363Z,0.80
2022-08-16T21:54:36.661Z,0.88
2022-08-16T21:59:38.533Z,1.00
2022-08-16T22:04:40.189Z,0.77
2022-08-16T22:09:43.139Z,0.63
2022-08-16T22:14:44.802Z,0.88
2022-08-16T22:19:46.527Z,0.80
2022-08-16T22:24:48.632Z,0.90
2022-08-16T22:29:50.276Z,0.70
2022-08-16T22:34:53.225Z,1.15
2022-08-16T22:39:57.499Z,0.93
2022-08-16T22:45:05.336Z,1.10
2022-08-16T22:50:07.808Z,0.98
2022-08-16T22:55:09.664Z,1.02
2022-08-16T23:00:14.356Z,0.90
2022-08-16T23:05:17.703Z,1.65
2022-08-16T23:10:20.588Z,0.80
2022-08-16T23:15:24.816Z,0.98
2022-08-16T23:20:28.744Z,0.88
2022-08-16T23:25:34.190Z,0.90
2022-08-16T23:30:36.791Z,0.98
2022-08-16T23:35:52.694Z,1.00
2022-08-16T23:40:54.508Z,1.08
2022-08-16T23:46:00.759Z,0.88
2022-08-16T23:51:06.259Z,1.23
2022-08-16T23:56:19.366Z,1.10
